Time;durP1;ratioP1;P1;durP2;ratioP2;P2;SDS_P1;SDS_P2;PMS_P1;PMS_P2;Temp;Humidity;BMP_temperature;BMP_pressure;BME280_temperature;BME280_humidity;BME280_pressure;Samples;Min_cycle;Max_cycle;Signal;HPM_P1;HPM_P2
2022/03/13 00:00:49;;;;;;;212.23;177.00;;;;;;;14.96;25.10;93579.81;5052883;28;20049;-63
2022/03/13 00:03:17;;;;;;;219.38;176.30;;;;;;;14.96;25.06;93579.81;5056898;28;20080;-63
2022/03/13 00:05:45;;;;;;;225.60;184.90;;;;;;;14.96;25.05;93579.81;5054717;28;20424;-62
2022/03/13 00:08:27;;;;;;;214.55;180.77;;;;;;;14.95;25.13;93579.06;5057249;28;20036;-64
2022/03/13 00:11:01;;;;;;;229.60;188.98;;;;;;;14.96;25.03;93579.81;5055619;28;20048;-63
2022/03/13 00:13:35;;;;;;;236.10;189.60;;;;;;;14.96;24.87;93582.50;5054764;28;20520;-64
2022/03/13 00:16:08;;;;;;;212.07;177.20;;;;;;;14.95;25.14;93571.00;5056394;28;20117;-62
2022/03/13 00:18:36;;;;;;;211.85;172.85;;;;;;;14.94;25.05;93574.16;5054704;28;20068;-61
2022/03/13 00:21:04;;;;;;;228.38;184.35;;;;;;;14.94;25.20;93563.38;5057240;28;20101;-62
2022/03/13 00:23:34;;;;;;;214.23;175.95;;;;;;;14.94;25.08;93568.78;5050967;28;20052;-63
2022/03/13 00:26:01;;;;;;;229.63;187.57;;;;;;;14.93;25.02;93572.66;5060675;28;20057;-62
2022/03/13 00:28:26;;;;;;;208.63;170.30;;;;;;;14.92;24.74;93568.47;5060393;28;20041;-63
2022/03/13 00:30:52;;;;;;;231.40;183.77;;;;;;;14.94;25.13;93564.13;5055580;28;20037;-63
2022/03/13 00:33:17;;;;;;;211.73;175.43;;;;;;;14.92;25.01;93571.91;5058785;28;20680;-62
2022/03/13 00:35:43;;;;;;;211.35;173.70;;;;;;;14.92;25.34;93563.09;5055398;28;20709;-63
2022/03/13 00:38:08;;;;;;;213.10;176.35;;;;;;;14.92;25.20;93563.84;5053510;28;20044;-63
2022/03/13 00:40:35;;;;;;;214.00;172.35;;;;;;;14.94;25.20;93574.16;5052365;28;20052;-62
2022/03/13 00:43:01;;;;;;;214.32;176.23;;;;;;;14.92;25.21;93558.44;5053739;28;20048;-63
2022/03/13 00:45:27;;;;;;;212.15;173.77;;;;;;;14.92;25.19;93569.22;5045102;28;20071;-62
2022/03/13 00:47:53;;;;;;;215.93;179.15;;;;;;;14.93;25.19;93568.03;5050132;28;20076;-63
2022/03/13 00:50:19;;;;;;;209.15;171.70;;;;;;;14.89;25.09;93551.25;5051543;28;20167;-62
2022/03/13 00:52:45;;;;;;;209.20;169.77;;;;;;;14.92;25.02;93557.69;5051016;28;20057;-62
2022/03/13 00:55:11;;;;;;;213.02;173.65;;;;;;;14.90;24.98;93552.00;5055167;28;20146;-62
2022/03/13 00:57:37;;;;;;;209.40;168.80;;;;;;;14.90;25.12;93555.44;5034805;28;20048;-62
2022/03/13 01:00:05;;;;;;;211.55;170.20;;;;;;;14.89;25.06;93553.19;5054890;28;20428;-61
2022/03/13 01:02:32;;;;;;;211.73;174.88;;;;;;;14.90;25.20;93563.53;5047907;28;20127;-62
2022/03/13 01:04:57;;;;;;;209.27;170.73;;;;;;;14.89;25.16;93553.94;5051513;28;20053;-61
2022/03/13 01:07:23;;;;;;;213.77;172.27;;;;;;;14.89;25.18;93548.56;5048445;28;20103;-61
2022/03/13 01:09:48;;;;;;;223.00;181.10;;;;;;;14.86;25.20;93541.38;5056140;28;20049;-63
2022/03/13 01:12:14;;;;;;;220.80;179.73;;;;;;;14.89;25.16;93548.56;5055969;28;20781;-63
2022/03/13 01:14:39;;;;;;;208.80;172.35;;;;;;;14.88;25.17;93536.31;5056211;28;20041;-63
2022/03/13 01:17:08;;;;;;;209.35;172.40;;;;;;;14.87;25.15;93537.50;5051834;28;20140;-62
2022/03/13 01:19:33;;;;;;;225.45;181.70;;;;;;;14.89;25.21;93537.03;5054883;28;20529;-62
2022/03/13 01:22:00;;;;;;;211.95;172.77;;;;;;;14.88;25.10;93543.63;5050708;28;20029;-61
2022/03/13 01:24:31;;;;;;;210.98;173.45;;;;;;;14.88;25.19;93536.31;5051643;28;20044;-62
2022/03/13 01:27:01;;;;;;;222.25;178.93;;;;;;;14.88;25.03;93536.31;5059233;28;20517;-61
2022/03/13 01:29:29;;;;;;;210.02;172.82;;;;;;;14.86;25.08;93527.91;5053238;28;20048;-63
2022/03/13 01:31:54;;;;;;;227.15;183.85;;;;;;;14.84;25.10;93519.53;5056246;28;20138;-63
2022/03/13 01:34:41;;;;;;;209.93;172.73;;;;;;;14.83;25.22;93510.72;5052381;28;20409;-63
2022/03/13 01:37:38;;;;;;;223.75;180.52;;;;;;;14.86;25.25;93519.84;5052343;28;20064;-63
2022/03/13 01:40:10;;;;;;;214.40;174.27;;;;;;;14.87;25.09;93512.50;5038035;28;20629;-62
2022/03/13 01:42:36;;;;;;;211.15;171.80;;;;;;;14.87;25.13;93510.56;5046613;28;20052;-63
2022/03/13 01:45:03;;;;;;;217.38;175.25;;;;;;;14.86;25.25;93514.44;5049852;28;20048;-62
2022/03/13 01:47:29;;;;;;;210.63;174.93;;;;;;;14.84;24.90;93506.06;5055468;28;20052;-62
2022/03/13 01:49:55;;;;;;;213.77;174.43;;;;;;;14.83;25.30;93507.25;5056054;28;20056;-63
2022/03/13 01:52:26;;;;;;;225.15;181.55;;;;;;;14.82;25.08;93506.53;5028206;28;20067;-61
2022/03/13 01:54:53;;;;;;;225.95;183.18;;;;;;;14.82;25.20;93503.81;5038576;28;20134;-62
2022/03/13 01:57:20;;;;;;;210.90;171.75;;;;;;;14.82;25.14;93497.69;5042815;28;20056;-62
2022/03/13 01:59:51;;;;;;;211.32;173.65;;;;;;;14.83;25.23;93499.19;5059808;28;20068;-62
2022/03/13 02:02:18;;;;;;;224.23;179.20;;;;;;;14.82;25.22;93495.75;5030101;28;20526;-63
2022/03/13 02:04:50;;;;;;;210.38;167.80;;;;;;;14.82;25.17;93486.94;5056424;28;20540;-63
2022/03/13 02:07:15;;;;;;;211.15;171.52;;;;;;;14.81;25.18;93483.50;5052410;28;20737;-63
2022/03/13 02:09:41;;;;;;;215.07;176.48;;;;;;;14.81;25.20;93478.09;5042995;28;20072;-61
2022/03/13 02:12:07;;;;;;;210.98;172.95;;;;;;;14.83;25.18;93491.88;5049807;28;20852;-62
2022/03/13 02:14:33;;;;;;;213.00;172.98;;;;;;;14.80;25.17;93484.69;5056175;28;20102;-61
2022/03/13 02:16:58;;;;;;;224.85;179.75;;;;;;;14.82;25.25;93476.16;5035221;28;20045;-62
2022/03/13 02:19:24;;;;;;;214.55;176.77;;;;;;;14.82;25.22;93481.53;5056101;28;20102;-63
2022/03/13 02:21:51;;;;;;;210.90;172.25;;;;;;;14.82;25.11;93479.59;5052040;28;20417;-63
2022/03/13 02:24:22;;;;;;;210.55;168.52;;;;;;;14.81;25.15;93480.03;5055557;28;20902;-61
2022/03/13 02:27:06;;;;;;;220.00;177.50;;;;;;;14.81;25.38;93480.03;5049333;28;20089;-62
2022/03/13 02:29:32;;;;;;;212.55;172.23;;;;;;;14.79;25.19;93480.50;5056525;28;20412;-63
2022/03/13 02:32:00;;;;;;;225.68;180.75;;;;;;;14.79;25.25;93468.97;5052719;28;20037;-63
2022/03/13 02:34:27;;;;;;;212.32;174.10;;;;;;;14.80;25.19;93482.00;5051993;28;20118;-64
2022/03/13 02:36:55;;;;;;;218.90;179.05;;;;;;;14.79;25.29;93471.66;5052249;28;20211;-62
2022/03/13 02:39:21;;;;;;;217.02;178.52;;;;;;;14.78;25.16;93476.28;5042315;28;20744;-63
2022/03/13 02:41:46;;;;;;;216.00;180.50;;;;;;;14.78;25.20;93478.25;5051823;28;20123;-61
2022/03/13 02:44:14;;;;;;;218.43;174.00;;;;;;;14.76;25.20;93478.69;5050596;28;20120;-62
2022/03/13 02:46:46;;;;;;;225.60;181.10;;;;;;;14.76;25.13;93473.31;5050686;28;20060;-63
2022/03/13 02:49:13;;;;;;;216.63;176.60;;;;;;;14.74;25.40;93478.38;5057395;28;20044;-63
2022/03/13 02:51:39;;;;;;;214.05;175.90;;;;;;;14.76;25.21;93477.94;5048424;28;20139;-62
2022/03/13 02:54:05;;;;;;;222.48;181.13;;;;;;;14.76;25.32;93475.25;5058510;28;20041;-63
2022/03/13 02:56:30;;;;;;;212.45;172.07;;;;;;;14.73;25.06;93470.75;5052585;28;20421;-62
2022/03/13 02:58:56;;;;;;;217.80;177.73;;;;;;;14.76;25.37;93473.31;5057908;28;20048;-63
2022/03/13 03:01:22;;;;;;;218.32;177.05;;;;;;;14.76;25.22;93476.00;5051461;28;20060;-63
2022/03/13 03:03:48;;;;;;;216.30;179.52;;;;;;;14.78;25.25;93483.63;5051811;28;20048;-62
2022/03/13 03:06:14;;;;;;;219.50;182.13;;;;;;;14.76;25.12;93481.38;5051912;28;20051;-63
2022/03/13 03:08:39;;;;;;;221.50;181.00;;;;;;;14.75;25.56;93490.66;5050398;28;20123;-63
2022/03/13 03:11:05;;;;;;;226.40;181.82;;;;;;;14.75;25.18;93487.22;5046514;28;20048;-62
2022/03/13 03:13:31;;;;;;;221.35;181.95;;;;;;;14.74;25.19;93497.22;5054404;28;20047;-62
2022/03/13 03:15:57;;;;;;;216.05;175.13;;;;;;;14.74;25.27;93499.16;5053251;28;20048;-61
2022/03/13 03:18:23;;;;;;;213.60;174.52;;;;;;;14.73;25.20;93495.72;5054274;28;20065;-61
2022/03/13 03:20:49;;;;;;;230.15;186.93;;;;;;;14.72;25.34;93488.84;5046329;28;20124;-62
2022/03/13 03:23:15;;;;;;;217.10;178.85;;;;;;;14.74;25.29;93493.78;5051814;28;20048;-62
2022/03/13 03:25:41;;;;;;;218.70;175.70;;;;;;;14.73;25.25;93494.97;5032969;28;20080;-61
2022/03/13 03:28:07;;;;;;;218.35;177.45;;;;;;;14.72;25.26;93496.91;5049747;28;20052;-61
2022/03/13 03:30:32;;;;;;;213.20;176.75;;;;;;;14.71;25.38;93497.34;5055846;28;20036;-60
2022/03/13 03:33:02;;;;;;;222.93;179.65;;;;;;;14.72;25.25;93505.00;5055418;28;20037;-62
2022/03/13 03:35:28;;;;;;;207.95;168.52;;;;;;;14.72;25.29;93501.56;5057170;28;20044;-61
2022/03/13 03:37:55;;;;;;;223.85;178.98;;;;;;;14.72;25.14;93501.56;5051253;28;20046;-62
2022/03/13 03:40:26;;;;;;;213.18;174.20;;;;;;;14.72;25.06;93515.00;5055980;28;20083;-63
2022/03/13 03:43:00;;;;;;;221.73;180.33;;;;;;;14.72;25.06;93515.00;5058118;28;20053;-61
2022/03/13 03:45:26;;;;;;;211.05;174.38;;;;;;;14.70;25.29;93520.84;5065915;28;20052;-62
2022/03/13 03:47:51;;;;;;;211.30;171.95;;;;;;;14.67;25.17;93521.72;5060316;28;20123;-62
2022/03/13 03:50:18;;;;;;;206.77;169.20;;;;;;;14.65;25.13;93516.03;5058997;28;20052;-62
2022/03/13 03:52:47;;;;;;;208.70;170.05;;;;;;;14.66;25.19;93525.59;5054043;28;20045;-62
2022/03/13 03:55:14;;;;;;;214.13;171.57;;;;;;;14.64;25.33;93522.59;5050002;28;20053;-61
2022/03/13 03:57:40;;;;;;;232.00;185.25;;;;;;;14.64;25.14;93521.84;5048910;28;20037;-62
2022/03/13 04:00:07;;;;;;;221.35;175.38;;;;;;;14.61;25.39;93522.75;5050437;28;20044;-62
2022/03/13 04:02:33;;;;;;;210.80;173.05;;;;;;;14.63;25.17;93536.50;5045776;28;20049;-61
2022/03/13 04:05:00;;;;;;;210.52;168.20;;;;;;;14.64;25.02;93535.31;5054118;28;20114;-62
2022/03/13 04:07:25;;;;;;;221.38;179.63;;;;;;;14.59;25.06;93533.94;5049582;28;20052;-62
2022/03/13 04:09:51;;;;;;;208.57;170.90;;;;;;;14.59;25.17;93535.88;5054827;28;20512;-61
2022/03/13 04:12:18;;;;;;;215.88;172.00;;;;;;;14.59;25.30;93546.66;5054217;28;20116;-60
2022/03/13 04:14:44;;;;;;;208.15;168.25;;;;;;;14.56;25.16;93547.53;5051549;28;20508;-61
2022/03/13 04:17:10;;;;;;;216.02;174.10;;;;;;;14.58;25.23;93550.53;5049693;28;20530;-62
2022/03/13 04:19:35;;;;;;;210.82;168.93;;;;;;;14.60;25.15;93553.53;5056834;28;20036;-61
2022/03/13 04:22:01;;;;;;;217.80;173.82;;;;;;;14.58;25.04;93561.31;5053847;28;20053;-62
2022/03/13 04:24:29;;;;;;;213.82;170.43;;;;;;;14.55;25.08;93559.50;5058304;28;20070;-62
2022/03/13 04:26:56;;;;;;;216.85;174.35;;;;;;;14.52;25.23;93558.44;5052997;28;20044;-61
2022/03/13 04:29:23;;;;;;;215.15;172.55;;;;;;;14.52;25.27;93566.50;5035255;28;20052;-62
2022/03/13 04:31:50;;;;;;;210.10;170.80;;;;;;;14.50;25.07;93555.44;5060906;28;20040;-62
2022/03/13 04:34:16;;;;;;;223.98;180.02;;;;;;;14.52;24.90;93571.13;5054370;28;20093;-63
2022/03/13 04:36:42;;;;;;;235.23;186.45;;;;;;;14.48;25.14;93572.00;5049063;28;20037;-61
2022/03/13 04:39:08;;;;;;;216.90;176.05;;;;;;;14.46;25.40;93560.19;5052894;28;20100;-62
2022/03/13 04:41:34;;;;;;;207.93;165.18;;;;;;;14.47;25.26;93569.75;5049485;28;20120;-62
2022/03/13 04:43:59;;;;;;;208.57;168.65;;;;;;;14.42;25.02;93565.72;5060194;28;20041;-61
2022/03/13 04:46:26;;;;;;;212.63;171.70;;;;;;;14.42;25.21;93568.41;5055165;28;20049;-62
2022/03/13 04:48:53;;;;;;;209.25;169.73;;;;;;;14.43;25.09;93559.13;5032172;28;20052;-62
2022/03/13 04:51:19;;;;;;;214.50;174.68;;;;;;;14.44;25.06;93559.88;5059375;28;20055;-61
2022/03/13 04:53:45;;;;;;;214.50;171.25;;;;;;;14.43;25.04;93561.81;5049684;28;20067;-61
2022/03/13 04:56:11;;;;;;;219.40;174.88;;;;;;;14.46;25.10;93569.00;5054898;28;20048;-62
2022/03/13 04:58:37;;;;;;;209.38;166.95;;;;;;;14.45;24.88;93567.50;5031847;28;20373;-62
2022/03/13 05:01:02;;;;;;;220.48;173.48;;;;;;;14.42;25.01;93570.34;5046335;28;20073;-61
2022/03/13 05:03:32;;;;;;;214.50;173.15;;;;;;;14.45;25.20;93572.16;5054207;28;20037;-61
2022/03/13 05:05:57;;;;;;;209.10;170.60;;;;;;;14.46;24.95;93560.19;5050915;28;20033;-61
2022/03/13 05:08:23;;;;;;;213.35;168.50;;;;;;;14.48;25.13;93571.25;5046637;28;20065;-61
2022/03/13 05:10:50;;;;;;;222.27;177.25;;;;;;;14.54;24.98;93582.22;5053604;28;20455;-61
2022/03/13 05:13:17;;;;;;;217.80;173.77;;;;;;;14.55;25.14;93575.63;5051330;28;20041;-62
2022/03/13 05:15:45;;;;;;;209.88;168.20;;;;;;;14.50;25.02;93569.63;5050425;28;20132;-61
2022/03/13 05:18:12;;;;;;;226.85;179.73;;;;;;;14.55;24.91;93576.38;5027190;28;20390;-61
2022/03/13 05:20:38;;;;;;;222.85;178.10;;;;;;;14.58;24.91;93588.97;5046301;28;20056;-62
2022/03/13 05:23:07;;;;;;;211.82;169.65;;;;;;;14.60;24.91;93585.81;5053034;28;20130;-62
2022/03/13 05:25:34;;;;;;;217.75;176.68;;;;;;;14.59;25.02;93589.72;5055640;28;20052;-61
2022/03/13 05:28:00;;;;;;;213.35;173.68;;;;;;;14.60;25.34;93585.81;5029316;28;20171;-61
2022/03/13 05:30:26;;;;;;;212.30;169.23;;;;;;;14.61;24.98;93590.03;5058351;28;20123;-62
2022/03/13 05:32:52;;;;;;;210.82;171.25;;;;;;;14.61;24.91;93590.03;5047638;28;20041;-62
2022/03/13 05:35:18;;;;;;;218.95;176.25;;;;;;;14.62;24.96;93584.19;5051033;28;20053;-62
2022/03/13 05:37:44;;;;;;;210.80;168.35;;;;;;;14.62;24.88;93589.56;5054036;28;20048;-62
2022/03/13 05:40:14;;;;;;;220.18;176.85;;;;;;;14.61;25.04;93600.78;5059743;28;20056;-61
2022/03/13 05:42:50;;;;;;;212.30;172.75;;;;;;;14.60;24.90;93596.59;5049669;28;20060;-61
2022/03/13 05:45:20;;;;;;;226.13;182.63;;;;;;;14.58;24.99;93591.66;5033774;28;20120;-61
2022/03/13 05:47:53;;;;;;;209.18;165.52;;;;;;;14.60;25.11;93601.97;5058514;28;20044;-62
2022/03/13 05:50:21;;;;;;;226.93;184.57;;;;;;;14.61;25.07;93601.53;5050361;28;20064;-63
2022/03/13 05:52:47;;;;;;;209.32;166.60;;;;;;;14.62;24.98;93603.03;5047516;28;20052;-62
2022/03/13 05:55:14;;;;;;;218.10;178.05;;;;;;;14.59;24.91;93608.53;5048206;28;20048;-62
2022/03/13 05:57:40;;;;;;;225.77;179.82;;;;;;;14.61;24.97;93608.84;5039002;28;20044;-62
2022/03/13 06:00:09;;;;;;;219.93;175.13;;;;;;;14.61;25.07;93606.91;5035830;28;20056;-61
2022/03/13 06:02:36;;;;;;;203.95;166.70;;;;;;;14.60;24.96;93605.41;5047130;28;20135;-63
2022/03/13 06:05:03;;;;;;;212.25;170.40;;;;;;;14.61;24.90;93611.53;5054022;28;20057;-62
2022/03/13 06:07:28;;;;;;;283.92;223.35;;;;;;;14.60;24.83;93618.88;5051483;28;20048;-61
2022/03/13 06:09:55;;;;;;;250.57;199.75;;;;;;;14.60;24.92;93615.44;5028103;28;20072;-62
2022/03/13 06:12:21;;;;;;;246.00;197.23;;;;;;;14.62;24.89;93610.34;5032161;28;20044;-63
2022/03/13 06:14:47;;;;;;;239.75;197.68;;;;;;;14.65;24.81;93622.94;5028473;28;20365;-62
2022/03/13 06:17:13;;;;;;;252.68;200.20;;;;;;;14.67;24.73;93620.56;5030765;28;20079;-62
2022/03/13 06:19:42;;;;;;;246.38;196.55;;;;;;;14.69;25.02;93628.94;5025748;28;20073;-62
2022/03/13 06:22:10;;;;;;;237.38;189.05;;;;;;;14.66;24.79;93614.41;5029752;28;20103;-61
2022/03/13 06:24:36;;;;;;;228.65;181.80;;;;;;;14.69;24.69;93624.31;5031051;28;20061;-62
2022/03/13 06:27:02;;;;;;;248.65;196.57;;;;;;;14.71;24.93;93624.59;5026123;28;20065;-59
2022/03/13 06:29:28;;;;;;;247.60;198.27;;;;;;;14.74;24.81;93631.81;5030081;28;20057;-60
2022/03/13 06:31:54;;;;;;;244.35;196.15;;;;;;;14.78;24.76;93623.59;5030377;28;20056;-61
2022/03/13 06:34:19;;;;;;;254.32;200.88;;;;;;;14.80;24.72;93621.97;5030701;28;20049;-59
2022/03/13 06:36:45;;;;;;;243.73;193.95;;;;;;;14.81;24.94;93623.47;5031898;28;20056;-61
2022/03/13 06:39:11;;;;;;;233.68;184.93;;;;;;;14.82;24.79;93624.22;5032106;28;21569;-63
2022/03/13 06:41:38;;;;;;;241.38;194.05;;;;;;;14.87;24.80;93625.59;5031683;28;20059;-64
2022/03/13 06:44:04;;;;;;;261.20;209.57;;;;;;;14.86;24.74;93624.09;5031168;28;20123;-62
2022/03/13 06:46:30;;;;;;;242.32;194.73;;;;;;;14.87;24.87;93622.88;5011309;28;20041;-63
2022/03/13 06:48:56;;;;;;;240.25;192.93;;;;;;;14.87;24.80;93630.97;5031533;28;20778;-65
2022/03/13 06:51:22;;;;;;;249.23;205.85;;;;;;;14.89;24.89;93632.03;5032479;28;20053;-65
2022/03/13 06:53:48;;;;;;;235.18;190.15;;;;;;;14.90;24.86;93628.13;5033115;28;20734;-65
2022/03/13 06:56:13;;;;;;;238.65;190.57;;;;;;;14.90;24.75;93630.84;5035441;28;20076;-66
2022/03/13 06:58:41;;;;;;;243.13;197.85;;;;;;;14.91;24.86;93639.66;5014344;28;20488;-65
2022/03/13 07:01:07;;;;;;;238.77;194.82;;;;;;;14.91;24.94;93636.97;5014320;28;21205;-64
2022/03/13 07:03:33;;;;;;;250.48;202.82;;;;;;;14.92;24.78;93644.59;5035532;28;20045;-64
2022/03/13 07:05:58;;;;;;;243.15;196.55;;;;;;;14.92;25.01;93644.59;5035597;28;20056;-66
2022/03/13 07:08:24;;;;;;;245.25;198.40;;;;;;;14.90;24.88;93648.94;5038122;28;20648;-63
2022/03/13 07:10:50;;;;;;;266.70;210.65;;;;;;;14.92;25.11;93646.53;5032942;28;20098;-63
2022/03/13 07:13:18;;;;;;;245.68;193.85;;;;;;;14.92;24.74;93650.00;5033804;28;20182;-65
2022/03/13 07:15:44;;;;;;;243.20;196.63;;;;;;;14.94;24.96;93653.00;5038687;28;20071;-65
2022/03/13 07:18:10;;;;;;;252.52;200.40;;;;;;;14.94;24.97;93652.25;5036743;28;20045;-65
2022/03/13 07:20:35;;;;;;;244.48;196.57;;;;;;;14.93;24.91;93653.44;5037053;28;20107;-64
2022/03/13 07:23:01;;;;;;;240.57;192.40;;;;;;;14.94;25.05;93646.84;5035828;28;20057;-64
2022/03/13 07:25:26;;;;;;;231.13;187.95;;;;;;;14.95;25.07;93653.75;5021540;28;20261;-63
2022/03/13 07:27:52;;;;;;;242.43;199.43;;;;;;;14.93;25.13;93648.78;5034784;28;20041;-65
2022/03/13 07:30:18;;;;;;;248.60;203.73;;;;;;;14.93;25.00;93654.19;5035055;28;20057;-65
2022/03/13 07:32:44;;;;;;;250.50;204.60;;;;;;;14.94;24.75;93652.25;5033337;28;20053;-64
2022/03/13 07:35:10;;;;;;;235.88;192.02;;;;;;;14.93;25.12;93648.78;5037036;28;20179;-65
2022/03/13 07:37:36;;;;;;;244.32;198.85;;;;;;;14.97;24.98;93651.31;5035555;28;20685;-64
2022/03/13 07:40:03;;;;;;;248.65;196.60;;;;;;;14.96;25.04;93650.56;5038022;28;20044;-61
2022/03/13 07:42:28;;;;;;;235.27;189.73;;;;;;;14.95;25.18;93649.06;5036054;28;21188;-62
2022/03/13 07:44:54;;;;;;;241.40;193.35;;;;;;;14.96;25.16;93641.75;5034766;28;20099;-62
2022/03/13 07:47:19;;;;;;;416.40;348.10;;;;;;;14.98;25.23;93642.06;5004744;28;20119;-62
2022/03/13 07:49:45;;;;;;;242.25;194.80;;;;;;;14.97;25.05;93646.69;5034583;28;20060;-62
2022/03/13 07:52:11;;;;;;;257.08;203.70;;;;;;;14.97;25.07;93651.31;5031762;28;20505;-61
2022/03/13 07:54:36;;;;;;;251.32;202.80;;;;;;;14.94;25.23;93655.69;5035690;28;20075;-61
2022/03/13 07:57:02;;;;;;;246.27;198.95;;;;;;;14.94;25.20;93655.69;5036252;28;20124;-62
2022/03/13 07:59:28;;;;;;;254.27;207.05;;;;;;;14.94;25.26;93638.78;5035615;28;20517;-61
2022/03/13 08:01:54;;;;;;;242.80;194.20;;;;;;;14.93;25.12;93646.09;5035861;28;20045;-62
2022/03/13 08:04:19;;;;;;;256.10;203.77;;;;;;;14.94;25.33;93649.53;5033951;28;20053;-62
2022/03/13 08:06:45;;;;;;;249.18;201.52;;;;;;;14.93;25.31;93643.41;5035731;28;20122;-62
2022/03/13 08:09:11;;;;;;;251.90;200.88;;;;;;;14.96;25.14;93645.19;5037112;28;20044;-62
2022/03/13 08:11:38;;;;;;;244.32;194.80;;;;;;;14.96;25.14;93642.50;5035149;28;22816;-62
2022/03/13 08:14:10;;;;;;;238.30;194.52;;;;;;;14.97;25.25;93648.63;5036786;28;20048;-63
2022/03/13 08:16:35;;;;;;;242.30;194.33;;;;;;;14.97;25.34;93640.56;5035992;28;20056;-61
2022/03/13 08:19:03;;;;;;;249.10;201.23;;;;;;;14.98;25.19;93647.44;5036079;28;20052;-63
2022/03/13 08:21:29;;;;;;;241.30;194.55;;;;;;;14.95;25.47;93646.38;5015830;28;20804;-62
2022/03/13 08:23:55;;;;;;;244.13;198.50;;;;;;;14.95;25.37;93646.38;5036983;28;20527;-61
2022/03/13 08:26:21;;;;;;;248.73;196.75;;;;;;;14.94;25.30;93642.22;5033210;28;20094;-62
2022/03/13 08:28:47;;;;;;;245.00;196.18;;;;;;;14.98;25.21;93648.19;5035119;28;20068;-61
2022/03/13 08:31:13;;;;;;;253.82;200.57;;;;;;;14.97;25.38;93646.69;5034434;28;20061;-62
2022/03/13 08:33:42;;;;;;;235.38;187.65;;;;;;;14.98;25.45;93640.13;5033477;28;20048;-62
2022/03/13 08:36:07;;;;;;;236.68;185.15;;;;;;;14.98;25.42;93640.13;5033324;28;20130;-62
2022/03/13 08:38:33;;;;;;;246.23;197.30;;;;;;;14.98;25.32;93642.81;5033104;28;20061;-62
2022/03/13 08:40:58;;;;;;;244.70;194.50;;;;;;;14.98;25.24;93639.38;5036153;28;20110;-62
2022/03/13 08:43:24;;;;;;;241.68;195.93;;;;;;;14.99;25.39;93643.56;5014755;28;20041;-62
2022/03/13 08:45:50;;;;;;;241.43;197.30;;;;;;;15.00;25.41;93635.03;5033832;28;21265;-61
2022/03/13 08:48:16;;;;;;;238.73;191.15;;;;;;;14.99;25.51;93635.47;5034402;28;20051;-60
2022/03/13 08:50:41;;;;;;;253.15;201.25;;;;;;;14.99;25.43;93633.53;5030920;28;20045;-61
2022/03/13 08:53:07;;;;;;;246.18;196.88;;;;;;;15.02;25.53;93629.22;5032105;28;20165;-62
2022/03/13 08:55:33;;;;;;;240.43;198.02;;;;;;;15.02;25.40;93635.34;5033715;28;20387;-62
2022/03/13 08:57:59;;;;;;;245.65;201.98;;;;;;;15.03;25.33;93634.16;5034054;28;20155;-61
2022/03/13 09:00:26;;;;;;;249.43;197.50;;;;;;;15.03;25.44;93628.75;5032423;28;20550;-63
2022/03/13 09:02:53;;;;;;;245.73;196.45;;;;;;;15.03;25.37;93625.31;5032773;28;20045;-61
2022/03/13 09:05:19;;;;;;;246.40;197.98;;;;;;;15.01;25.34;93631.16;5031130;28;20047;-61
2022/03/13 09:07:45;;;;;;;247.13;200.45;;;;;;;15.03;25.41;93631.47;5016827;28;20055;-61
2022/03/13 09:10:11;;;;;;;251.95;201.52;;;;;;;15.03;25.37;93631.47;5034769;28;20061;-61
2022/03/13 09:12:38;;;;;;;238.48;192.88;;;;;;;15.05;25.40;93637.16;5033976;28;20060;-61
2022/03/13 09:15:05;;;;;;;226.65;184.75;;;;;;;15.04;25.62;93624.88;5035626;28;20068;-62
2022/03/13 09:17:31;;;;;;;243.60;193.07;;;;;;;15.04;25.35;93630.25;5032464;28;21565;-62
2022/03/13 09:19:58;;;;;;;246.88;197.98;;;;;;;15.03;25.33;93628.00;5035209;28;20045;-61
2022/03/13 09:22:30;;;;;;;248.30;197.85;;;;;;;15.02;25.37;93631.91;5032580;28;20171;-63
2022/03/13 09:24:57;;;;;;;;;;;;;;;15.01;25.29;93625.78;5032836;28;20048;-62
2022/03/13 09:27:30;;;;;;;225.82;178.95;;;;;;;15.02;25.35;93619.19;5017592;28;21788;-62
2022/03/13 09:29:57;;;;;;;238.63;191.40;;;;;;;15.03;24.92;93618.00;5034038;28;20373;-62
2022/03/13 09:32:24;;;;;;;243.27;193.65;;;;;;;15.04;25.21;93621.44;5033490;28;20053;-61
2022/03/13 09:34:50;;;;;;;242.30;194.07;;;;;;;15.04;25.31;93624.13;5034225;28;20049;-61
2022/03/13 09:37:16;;;;;;;242.07;196.80;;;;;;;15.05;25.07;93628.31;5033732;28;20109;-62
2022/03/13 09:39:42;;;;;;;255.02;204.50;;;;;;;15.04;25.10;93621.44;5033372;28;20055;-63
2022/03/13 09:42:08;;;;;;;240.10;195.00;;;;;;;15.07;25.23;93620.56;5034218;28;20056;-62
2022/03/13 09:44:34;;;;;;;234.93;190.73;;;;;;;15.03;25.13;93614.56;5034137;28;20041;-62
2022/03/13 09:47:00;;;;;;;239.27;194.25;;;;;;;15.03;25.14;93612.59;5033114;28;20472;-61
2022/03/13 09:49:27;;;;;;;241.98;199.23;;;;;;;15.04;25.18;93621.44;5030216;28;20053;-60
2022/03/13 09:51:53;;;;;;;236.85;192.23;;;;;;;15.03;25.02;93614.56;5032990;28;20056;-61
2022/03/13 09:54:19;;;;;;;240.05;194.52;;;;;;;15.01;25.17;93619.63;5033309;28;20047;-61
2022/03/13 09:56:45;;;;;;;232.80;187.63;;;;;;;15.02;24.96;93613.81;5032449;28;20045;-63
2022/03/13 09:59:11;;;;;;;244.50;195.48;;;;;;;15.05;25.04;93614.84;5030098;28;20429;-61
2022/03/13 10:01:37;;;;;;;237.07;189.20;;;;;;;15.07;25.07;93612.47;5032455;28;20063;-61
2022/03/13 10:04:04;;;;;;;243.65;196.82;;;;;;;15.07;25.13;93610.53;5032083;28;20509;-61
2022/03/13 10:06:30;;;;;;;245.63;195.88;;;;;;;15.07;25.17;93607.09;5031564;28;20473;-62
2022/03/13 10:08:55;;;;;;;233.10;186.60;;;;;;;15.08;25.29;93606.66;5031004;28;20048;-61
2022/03/13 10:11:33;;;;;;;242.25;193.18;;;;;;;15.08;25.19;93605.91;5031581;28;20046;-61
2022/03/13 10:14:06;;;;;;;244.35;194.88;;;;;;;15.07;25.26;93599.00;5033762;28;20061;-60
2022/03/13 10:16:39;;;;;;;233.85;188.02;;;;;;;15.07;25.19;93599.75;5032714;28;20132;-61
2022/03/13 10:19:18;;;;;;;241.43;192.73;;;;;;;15.03;25.24;93588.38;5034323;28;20116;-62
2022/03/13 10:22:07;;;;;;;231.18;185.98;;;;;;;15.07;25.16;93591.69;5031173;28;20048;-61
2022/03/13 10:24:44;;;;;;;238.32;191.10;;;;;;;15.07;25.13;93588.22;5032498;28;20041;-60
2022/03/13 10:27:12;;;;;;;238.95;190.35;;;;;;;15.03;24.59;93582.25;5030939;28;20049;-61
2022/03/13 10:29:39;;;;;;;243.25;193.65;;;;;;;15.02;24.56;93580.75;5034049;28;20051;-62
2022/03/13 10:32:05;;;;;;;238.07;190.48;;;;;;;15.02;24.61;93570.72;5033859;28;20424;-60
2022/03/13 10:34:32;;;;;;;222.27;182.55;;;;;;;15.02;24.87;93569.97;5013686;28;20052;-60
2022/03/13 10:36:58;;;;;;;238.25;192.65;;;;;;;14.99;24.59;93573.53;5032542;28;20055;-60
2022/03/13 10:39:23;;;;;;;242.88;194.60;;;;;;;14.96;24.65;93571.75;5012597;28;20049;-60
2022/03/13 10:42:01;;;;;;;235.93;192.00;;;;;;;14.92;24.33;93568.47;5030573;28;20045;-61
2022/03/13 10:44:29;;;;;;;237.38;189.65;;;;;;;14.93;24.32;93573.41;5031748;28;20069;-62
2022/03/13 10:46:57;;;;;;;225.80;184.35;;;;;;;14.95;24.19;93562.91;5032417;28;20048;-62
2022/03/13 10:49:44;;;;;;;240.75;193.88;;;;;;;15.00;24.29;93564.28;5033059;28;20837;-62
2022/03/13 10:52:25;;;;;;;244.40;195.15;;;;;;;15.01;24.31;93565.78;5030271;28;20044;-60
2022/03/13 10:54:53;;;;;;;230.73;181.93;;;;;;;14.99;24.34;93560.84;5031599;28;20060;-60
2022/03/13 10:57:19;;;;;;;233.20;184.68;;;;;;;15.01;24.23;93555.00;5028205;28;20056;-61
2022/03/13 10:59:45;;;;;;;243.23;194.43;;;;;;;14.97;23.93;93557.09;5032167;28;20045;-60
2022/03/13 11:02:13;;;;;;;237.18;189.23;;;;;;;14.95;23.88;93557.53;5033502;28;20048;-61